createdAt,value
2023-05-20T00:00:59.368Z,0.00
2023-05-20T00:01:59.368Z,0.00
2023-05-20T00:02:59.471Z,0.00
2023-05-20T00:03:59.713Z,0.00
2023-05-20T00:04:59.589Z,0.00
2023-05-20T00:05:59.512Z,0.00
2023-05-20T00:06:59.532Z,0.00
2023-05-20T00:07:59.549Z,0.00
2023-05-20T00:08:59.555Z,0.00
2023-05-20T00:09:59.592Z,0.00
2023-05-20T00:10:59.659Z,0.00
2023-05-20T00:11:59.667Z,0.00
2023-05-20T00:12:59.695Z,0.00
2023-05-20T00:13:59.720Z,0.00
2023-05-20T00:14:59.744Z,0.00
2023-05-20T00:15:59.818Z,0.00
2023-05-20T00:16:59.999Z,0.00
2023-05-20T00:17:59.953Z,0.00
2023-05-20T00:18:59.909Z,0.00
2023-05-20T00:19:59.937Z,0.00
2023-05-20T00:20:59.946Z,0.00
2023-05-20T00:22:00.004Z,0.00
2023-05-20T00:23:00.013Z,0.00
2023-05-20T00:24:00.025Z,0.00
2023-05-20T00:25:00.036Z,0.00
2023-05-20T00:26:00.953Z,0.00
2023-05-20T00:27:00.132Z,0.00
2023-05-20T00:28:00.136Z,0.00
2023-05-20T00:29:00.156Z,0.00
2023-05-20T00:30:00.216Z,0.00
2023-05-20T00:31:00.204Z,0.00
2023-05-20T00:32:00.247Z,0.00
2023-05-20T00:33:00.267Z,0.00
2023-05-20T00:34:00.283Z,0.00
2023-05-20T00:35:00.334Z,0.00
2023-05-20T00:36:00.378Z,0.00
2023-05-20T00:37:00.384Z,0.00
2023-05-20T00:38:00.425Z,0.00
2023-05-20T00:39:00.471Z,0.00
2023-05-20T00:40:00.445Z,0.00
2023-05-20T00:41:00.470Z,0.00
2023-05-20T00:42:00.479Z,0.00
2023-05-20T00:43:00.503Z,0.00
2023-05-20T00:44:00.545Z,0.00
2023-05-20T00:45:00.567Z,0.00
2023-05-20T00:46:00.633Z,0.00
2023-05-20T00:47:00.574Z,0.00
2023-05-20T00:48:00.604Z,0.00
2023-05-20T00:49:00.633Z,0.00
2023-05-20T00:50:00.683Z,0.00
2023-05-20T00:51:00.687Z,0.00
2023-05-20T00:52:00.708Z,0.00
2023-05-20T00:53:00.762Z,0.00
2023-05-20T00:54:00.877Z,0.00
2023-05-20T00:55:00.858Z,0.00
2023-05-20T00:56:00.909Z,0.00
2023-05-20T00:57:00.930Z,0.00
2023-05-20T00:58:00.959Z,0.00
2023-05-20T00:59:00.986Z,0.00
2023-05-20T01:00:01.016Z,0.00
2023-05-20T01:01:01.060Z,0.00
2023-05-20T01:02:01.029Z,0.00
2023-05-20T01:03:01.130Z,0.00
2023-05-20T01:04:01.092Z,0.00
2023-05-20T01:05:01.131Z,0.00
2023-05-20T01:06:01.177Z,0.00
2023-05-20T01:07:01.191Z,0.00
2023-05-20T01:08:01.225Z,0.00
2023-05-20T01:09:01.320Z,0.00
2023-05-20T01:10:01.303Z,0.00
2023-05-20T01:11:01.290Z,0.00
2023-05-20T01:12:01.321Z,0.00
2023-05-20T01:13:01.345Z,0.00
2023-05-20T01:14:01.365Z,0.00
2023-05-20T01:15:01.369Z,0.00
2023-05-20T01:16:01.382Z,0.00
2023-05-20T01:17:01.404Z,0.00
2023-05-20T01:18:01.674Z,0.00
2023-05-20T01:19:01.519Z,0.00
2023-05-20T01:20:01.522Z,0.00
2023-05-20T01:21:01.558Z,0.00
2023-05-20T01:22:01.573Z,0.00
2023-05-20T01:23:01.600Z,0.00
2023-05-20T01:24:01.639Z,0.00
2023-05-20T01:25:01.658Z,0.00
2023-05-20T01:26:01.701Z,0.00
2023-05-20T01:27:01.759Z,0.00
2023-05-20T01:28:01.768Z,0.00
2023-05-20T01:29:01.795Z,0.00
2023-05-20T01:30:01.808Z,0.00
2023-05-20T01:31:01.859Z,0.00
2023-05-20T01:32:01.867Z,0.00
2023-05-20T01:33:01.957Z,0.00
2023-05-20T01:34:01.875Z,0.00
2023-05-20T01:35:01.879Z,0.00
2023-05-20T01:36:01.896Z,0.00
2023-05-20T01:37:01.919Z,0.00
2023-05-20T01:38:01.948Z,0.00
2023-05-20T01:39:01.946Z,0.00
2023-05-20T01:40:01.961Z,0.00
2023-05-20T01:41:01.988Z,0.00
2023-05-20T01:42:02.014Z,0.00
2023-05-20T01:43:02.052Z,0.00
2023-05-20T01:44:02.061Z,0.00
2023-05-20T01:45:02.086Z,0.00
2023-05-20T01:46:02.106Z,0.00
2023-05-20T01:47:02.147Z,0.00
2023-05-20T01:48:02.259Z,0.00
2023-05-20T01:49:02.182Z,0.00
2023-05-20T01:50:02.198Z,0.00
2023-05-20T01:51:02.210Z,0.00
2023-05-20T01:52:02.216Z,0.00
2023-05-20T01:53:02.254Z,0.00
2023-05-20T01:54:02.265Z,0.00
2023-05-20T01:55:02.295Z,0.00
2023-05-20T01:56:02.297Z,0.00
2023-05-20T01:57:02.322Z,0.00
2023-05-20T01:58:02.373Z,0.00
2023-05-20T01:59:02.407Z,0.00
2023-05-20T02:00:02.431Z,0.00
2023-05-20T02:01:02.481Z,0.00
2023-05-20T02:02:02.528Z,0.00
2023-05-20T02:03:02.585Z,0.00
2023-05-20T02:04:02.773Z,0.00
2023-05-20T02:05:02.639Z,0.00
2023-05-20T02:06:02.676Z,0.00
2023-05-20T02:07:02.679Z,0.00
2023-05-20T02:08:02.768Z,0.00
2023-05-20T02:09:03.743Z,0.00
2023-05-20T02:10:02.877Z,0.00
2023-05-20T02:11:02.910Z,0.00
2023-05-20T02:12:02.951Z,0.00
2023-05-20T02:13:03.011Z,0.00
2023-05-20T02:14:03.069Z,0.00
2023-05-20T02:15:03.127Z,0.00
2023-05-20T02:16:03.188Z,0.00
2023-05-20T02:17:03.233Z,0.00
2023-05-20T02:18:03.310Z,0.00
2023-05-20T02:19:03.226Z,0.00
2023-05-20T02:20:03.294Z,0.00
2023-05-20T02:21:03.340Z,0.00
2023-05-20T02:22:03.400Z,0.00
2023-05-20T02:23:03.369Z,0.00
2023-05-20T02:24:03.379Z,0.00
2023-05-20T02:25:03.379Z,0.00
2023-05-20T02:26:03.383Z,0.00
2023-05-20T02:27:03.421Z,0.00
2023-05-20T02:28:03.479Z,0.00
2023-05-20T02:29:03.534Z,0.00
2023-05-20T02:30:03.575Z,0.00
2023-05-20T02:31:03.550Z,0.00
2023-05-20T02:32:03.601Z,0.00
2023-05-20T02:33:03.687Z,0.00
2023-05-20T02:34:03.740Z,0.00
2023-05-20T02:35:03.717Z,0.00
2023-05-20T02:36:03.722Z,0.00
2023-05-20T02:37:03.735Z,0.00
2023-05-20T02:38:03.812Z,0.00
2023-05-20T02:39:03.848Z,0.00
2023-05-20T02:40:03.899Z,0.00
2023-05-20T02:41:03.947Z,0.00
2023-05-20T02:42:03.941Z,4.00
2023-05-20T02:43:03.977Z,4.00
2023-05-20T02:44:04.027Z,4.00
2023-05-20T02:45:04.067Z,4.00
2023-05-20T02:46:04.098Z,0.00
2023-05-20T02:47:04.143Z,4.00
2023-05-20T02:48:04.235Z,4.00
2023-05-20T02:49:04.162Z,4.00
2023-05-20T02:50:04.165Z,8.00
2023-05-20T02:51:04.209Z,4.00
2023-05-20T02:52:04.283Z,8.00
2023-05-20T02:53:04.313Z,8.00
2023-05-20T02:54:04.366Z,8.00
2023-05-20T02:55:04.435Z,8.00
2023-05-20T02:56:04.511Z,12.00
2023-05-20T02:57:04.528Z,12.00
2023-05-20T02:58:04.554Z,16.00
2023-05-20T02:59:04.594Z,16.00
2023-05-20T03:00:04.666Z,20.00
2023-05-20T03:01:04.748Z,20.00
2023-05-20T03:02:04.733Z,24.00
2023-05-20T03:03:04.723Z,28.00
2023-05-20T03:04:04.832Z,32.00
2023-05-20T03:05:04.827Z,40.00
2023-05-20T03:06:04.841Z,40.00
2023-05-20T03:07:04.872Z,48.00
2023-05-20T03:08:04.859Z,52.00
2023-05-20T03:09:04.946Z,64.00
2023-05-20T03:10:05.040Z,68.00
2023-05-20T03:11:06.619Z,76.00
2023-05-20T03:12:05.045Z,80.00
2023-05-20T03:13:05.107Z,92.00
2023-05-20T03:14:05.145Z,104.00
2023-05-20T03:15:05.142Z,116.00
2023-05-20T03:16:05.215Z,128.00
2023-05-20T03:17:05.226Z,128.00
2023-05-20T03:18:05.308Z,152.00
2023-05-20T03:19:05.428Z,152.00
2023-05-20T03:20:05.407Z,172.00
2023-05-20T03:21:05.471Z,196.00
2023-05-20T03:22:05.472Z,200.00
2023-05-20T03:23:05.533Z,224.00
2023-05-20T03:24:05.572Z,240.00
2023-05-20T03:25:05.621Z,268.00
2023-05-20T03:26:05.667Z,288.00
2023-05-20T03:27:05.719Z,308.00
2023-05-20T03:28:05.747Z,336.00
2023-05-20T03:29:05.813Z,340.00
2023-05-20T03:30:05.855Z,392.00
2023-05-20T03:31:05.861Z,404.00
2023-05-20T03:32:06.353Z,408.00
2023-05-20T03:33:05.887Z,440.00
2023-05-20T03:34:05.908Z,476.00
2023-05-20T03:35:05.922Z,512.00
2023-05-20T03:36:05.903Z,508.00
2023-05-20T03:37:05.945Z,580.00
2023-05-20T03:38:05.966Z,608.00
2023-05-20T03:39:05.961Z,628.00
2023-05-20T03:40:05.979Z,660.00
2023-05-20T03:41:06.052Z,680.00
2023-05-20T03:42:06.039Z,728.00
2023-05-20T03:43:06.105Z,760.00
2023-05-20T03:44:06.165Z,804.00
2023-05-20T03:45:06.201Z,792.00
2023-05-20T03:46:06.253Z,844.00
2023-05-20T03:47:06.353Z,908.00
2023-05-20T03:48:06.374Z,900.00
2023-05-20T03:49:06.350Z,952.00
2023-05-20T03:50:06.371Z,944.00
2023-05-20T03:51:06.429Z,1016.00
2023-05-20T03:52:06.460Z,1076.00
2023-05-20T03:53:06.535Z,1100.00
2023-05-20T03:54:06.507Z,1136.00
2023-05-20T03:55:06.561Z,1116.00
2023-05-20T03:56:06.637Z,1224.00
2023-05-20T03:57:06.679Z,1252.00
2023-05-20T03:58:06.694Z,1296.00
2023-05-20T03:59:06.761Z,1308.00
2023-05-20T04:00:06.800Z,1400.00
2023-05-20T04:01:06.846Z,1408.00
2023-05-20T04:02:06.912Z,1488.00
2023-05-20T04:03:06.986Z,1432.00
2023-05-20T04:04:07.673Z,1580.00
2023-05-20T04:05:06.944Z,1612.00
2023-05-20T04:06:06.991Z,1644.00
2023-05-20T04:07:07.021Z,1696.00
2023-05-20T04:08:07.070Z,1652.00
2023-05-20T04:09:07.118Z,1632.00
2023-05-20T04:10:07.169Z,1768.00
2023-05-20T04:11:07.191Z,1804.00
2023-05-20T04:12:07.179Z,1844.00
2023-05-20T04:13:07.216Z,1908.00
2023-05-20T04:14:07.304Z,1948.00
2023-05-20T04:15:07.299Z,1932.00
2023-05-20T04:16:07.278Z,1984.00
2023-05-20T04:17:07.426Z,1928.00
2023-05-20T04:18:07.353Z,2052.00
2023-05-20T04:19:07.354Z,2180.00
2023-05-20T04:20:07.377Z,2356.00
2023-05-20T04:21:07.419Z,2420.00
2023-05-20T04:22:07.443Z,2588.00
2023-05-20T04:23:07.423Z,2620.00
2023-05-20T04:24:07.472Z,2868.00
2023-05-20T04:25:07.524Z,3056.00
2023-05-20T04:26:07.516Z,3412.00
2023-05-20T04:27:07.520Z,3608.00
2023-05-20T04:28:07.566Z,4224.00
2023-05-20T04:29:07.618Z,4492.00
2023-05-20T04:30:07.677Z,4652.00
2023-05-20T04:31:07.736Z,5284.00
2023-05-20T04:32:07.885Z,5412.00
2023-05-20T04:33:07.854Z,5828.00
2023-05-20T04:34:07.804Z,6008.00
2023-05-20T04:35:07.787Z,6032.00
2023-05-20T04:36:07.856Z,5972.00
2023-05-20T04:37:07.866Z,6020.00
2023-05-20T04:38:07.917Z,6180.00
2023-05-20T04:39:07.960Z,6584.00
2023-05-20T04:40:08.011Z,6952.00
2023-05-20T04:41:08.028Z,6880.00
2023-05-20T04:42:08.093Z,7064.00
2023-05-20T04:43:08.176Z,7552.00
2023-05-20T04:44:08.129Z,7660.00
2023-05-20T04:45:08.183Z,7924.00
2023-05-20T04:46:08.225Z,8080.00
2023-05-20T04:47:08.192Z,8124.00
2023-05-20T04:48:08.220Z,8156.00
2023-05-20T04:49:08.265Z,8396.00
2023-05-20T04:50:08.319Z,8488.00
2023-05-20T04:51:08.392Z,8744.00
2023-05-20T04:52:08.354Z,9576.00
2023-05-20T04:53:08.303Z,8964.00
2023-05-20T04:54:08.348Z,9160.00
2023-05-20T04:55:08.421Z,9220.00
2023-05-20T04:56:08.478Z,9736.00
2023-05-20T04:57:08.528Z,9972.00
2023-05-20T04:58:08.564Z,10260.00
2023-05-20T04:59:08.638Z,10724.00
2023-05-20T05:00:08.636Z,10960.00
2023-05-20T05:01:08.763Z,11128.00
2023-05-20T05:02:08.837Z,11452.00
2023-05-20T05:03:08.748Z,11880.00
2023-05-20T05:04:08.784Z,11592.00
2023-05-20T05:05:08.805Z,11256.00
2023-05-20T05:06:08.774Z,10996.00
2023-05-20T05:07:08.798Z,11088.00
2023-05-20T05:08:08.781Z,11060.00
2023-05-20T05:09:08.791Z,11140.00
2023-05-20T05:10:08.790Z,12004.00
2023-05-20T05:11:08.791Z,11432.00
2023-05-20T05:12:08.807Z,12320.00
2023-05-20T05:13:08.853Z,12164.00
2023-05-20T05:14:08.848Z,12240.00
2023-05-20T05:15:08.851Z,12512.00
2023-05-20T05:16:08.852Z,13004.00
2023-05-20T05:17:08.842Z,13044.00
2023-05-20T05:18:08.882Z,13032.00
2023-05-20T05:19:08.982Z,13188.00
2023-05-20T05:20:08.858Z,13104.00
2023-05-20T05:21:08.928Z,13148.00
2023-05-20T05:22:08.947Z,13416.00
2023-05-20T05:23:09.031Z,13848.00
2023-05-20T05:24:09.086Z,14440.00
2023-05-20T05:25:09.131Z,15256.00
2023-05-20T05:26:09.176Z,16448.00
2023-05-20T05:27:09.219Z,15988.00
2023-05-20T05:28:09.167Z,20608.00
2023-05-20T05:29:11.065Z,27840.00
2023-05-20T05:30:09.211Z,29280.00
2023-05-20T05:31:09.201Z,28832.00
2023-05-20T05:32:09.272Z,32544.00
2023-05-20T05:33:09.325Z,41056.00
2023-05-20T05:34:09.334Z,38944.00
2023-05-20T05:35:09.358Z,39232.00
2023-05-20T05:36:09.390Z,36832.00
2023-05-20T05:37:09.425Z,32736.00
2023-05-20T05:38:09.427Z,26944.00
2023-05-20T05:39:09.442Z,22976.00
2023-05-20T05:40:09.428Z,25312.00
2023-05-20T05:41:09.717Z,26112.00
2023-05-20T05:42:09.518Z,25760.00
2023-05-20T05:43:16.301Z,29696.00
2023-05-20T05:44:09.565Z,29440.00
2023-05-20T05:45:09.543Z,29920.00
2023-05-20T05:46:09.528Z,27520.00
2023-05-20T05:47:09.644Z,28000.00
2023-05-20T05:48:09.752Z,27168.00
2023-05-20T05:49:10.541Z,28128.00
2023-05-20T05:50:09.681Z,33056.00
2023-05-20T05:51:10.750Z,30912.00
2023-05-20T05:52:09.718Z,28160.00
2023-05-20T05:53:09.711Z,23296.00
2023-05-20T05:54:09.703Z,24640.00
2023-05-20T05:55:09.748Z,36672.00
2023-05-20T05:56:09.786Z,43776.00
2023-05-20T05:57:10.016Z,41344.00
2023-05-20T05:58:09.822Z,40704.00
2023-05-20T05:59:10.770Z,34944.00
2023-05-20T06:00:09.892Z,30432.00
2023-05-20T06:01:09.904Z,23264.00
2023-05-20T06:02:10.047Z,19168.00
2023-05-20T06:03:10.125Z,18176.00
2023-05-20T06:04:10.118Z,15628.00
2023-05-20T06:05:10.106Z,15472.00
2023-05-20T06:06:10.110Z,16072.00
2023-05-20T06:07:10.182Z,17088.00
2023-05-20T06:08:10.180Z,16340.00
2023-05-20T06:09:10.188Z,20032.00
2023-05-20T06:10:10.160Z,23616.00
2023-05-20T06:11:11.148Z,22400.00
2023-05-20T06:12:12.528Z,23552.00
2023-05-20T06:13:10.423Z,23904.00
2023-05-20T06:14:10.433Z,23648.00
2023-05-20T06:15:10.431Z,26944.00
2023-05-20T06:16:11.475Z,33024.00
2023-05-20T06:17:10.452Z,36672.00
2023-05-20T06:18:10.594Z,38592.00
2023-05-20T06:19:10.548Z,39584.00
2023-05-20T06:20:10.568Z,37856.00
2023-05-20T06:21:10.604Z,36192.00
2023-05-20T06:22:10.600Z,37248.00
2023-05-20T06:23:10.619Z,43008.00
2023-05-20T06:24:10.631Z,45280.00
2023-05-20T06:25:10.660Z,51520.00
2023-05-20T06:26:10.699Z,54848.00
2023-05-20T06:27:10.729Z,64896.00
2023-05-20T06:28:10.727Z,71200.00
2023-05-20T06:29:10.804Z,73536.00
2023-05-20T06:30:10.783Z,71936.00
2023-05-20T06:31:10.850Z,67712.00
2023-05-20T06:32:10.884Z,72960.00
2023-05-20T06:33:10.940Z,69568.00
2023-05-20T06:34:10.943Z,64032.00
2023-05-20T06:35:11.018Z,58016.00
2023-05-20T06:36:11.061Z,57888.00
2023-05-20T06:37:11.134Z,54464.00
2023-05-20T06:38:11.171Z,44256.00
2023-05-20T06:39:11.136Z,61504.00
2023-05-20T06:40:11.133Z,60832.00
2023-05-20T06:41:11.125Z,80288.00
2023-05-20T06:42:11.107Z,81184.00
2023-05-20T06:43:11.155Z,83872.00
2023-05-20T06:44:11.215Z,82240.00
2023-05-20T06:45:11.277Z,84032.00
2023-05-20T06:46:11.392Z,76736.00
2023-05-20T06:47:11.366Z,66688.00
2023-05-20T06:48:11.397Z,80128.00
2023-05-20T06:49:11.415Z,78912.00
2023-05-20T06:50:11.425Z,76960.00
2023-05-20T06:51:11.504Z,86912.00
2023-05-20T06:52:11.503Z,84032.00
2023-05-20T06:53:11.523Z,74400.00
2023-05-20T06:54:11.523Z,79168.00
2023-05-20T06:55:11.565Z,75840.00
2023-05-20T06:56:11.555Z,79744.00
2023-05-20T06:57:11.649Z,85888.00
2023-05-20T06:58:11.627Z,85216.00
2023-05-20T06:59:11.680Z,75328.00
2023-05-20T07:00:11.743Z,66240.00
2023-05-20T07:01:11.872Z,75264.00
2023-05-20T07:02:11.782Z,73152.00
2023-05-20T07:03:11.855Z,64160.00
2023-05-20T07:04:11.888Z,63200.00
2023-05-20T07:05:11.784Z,67104.00
2023-05-20T07:06:11.797Z,74560.00
2023-05-20T07:07:11.870Z,81568.00
2023-05-20T07:08:11.894Z,67744.00
2023-05-20T07:09:11.914Z,72672.00
2023-05-20T07:10:11.935Z,75136.00
2023-05-20T07:11:11.928Z,83520.00
2023-05-20T07:12:11.927Z,34432.00
2023-05-20T07:13:11.969Z,87200.00
2023-05-20T07:14:12.046Z,83136.00
2023-05-20T07:15:12.019Z,85152.00
2023-05-20T07:16:12.059Z,82880.00
2023-05-20T07:17:12.059Z,86944.00
2023-05-20T07:18:12.105Z,90400.00
2023-05-20T07:19:12.208Z,84224.00
2023-05-20T07:20:12.227Z,83520.00
2023-05-20T07:21:12.129Z,80000.00
2023-05-20T07:22:12.166Z,77600.00
2023-05-20T07:23:13.874Z,88448.00
2023-05-20T07:24:12.169Z,88896.00
2023-05-20T07:25:12.205Z,92640.00
2023-05-20T07:26:12.176Z,80864.00
2023-05-20T07:27:12.282Z,78048.00
2023-05-20T07:28:12.222Z,78720.00
2023-05-20T07:29:12.229Z,76672.00
2023-05-20T07:30:12.277Z,84064.00
2023-05-20T07:31:12.312Z,77024.00
2023-05-20T07:32:12.358Z,78848.00
2023-05-20T07:33:12.365Z,85664.00
2023-05-20T07:34:12.403Z,27392.00
2023-05-20T07:35:12.461Z,91520.00
2023-05-20T07:36:12.408Z,89952.00
2023-05-20T07:37:12.530Z,85216.00
2023-05-20T07:38:12.455Z,85216.00
2023-05-20T07:39:15.125Z,87808.00
2023-05-20T07:40:12.504Z,87040.00
2023-05-20T07:41:12.547Z,85728.00
2023-05-20T07:42:12.567Z,84928.00
2023-05-20T07:43:12.575Z,82528.00
2023-05-20T07:44:12.623Z,83360.00
2023-05-20T07:45:12.616Z,91808.00
2023-05-20T07:46:12.713Z,82816.00
2023-05-20T07:47:12.665Z,87680.00
2023-05-20T07:48:12.760Z,90240.00
2023-05-20T07:49:12.778Z,80064.00
2023-05-20T07:50:12.837Z,81824.00
2023-05-20T07:51:12.888Z,83392.00
2023-05-20T07:52:12.868Z,87616.00
2023-05-20T07:53:12.873Z,69952.00
2023-05-20T07:54:12.886Z,81888.00
2023-05-20T07:55:12.941Z,83776.00
2023-05-20T07:56:12.986Z,81216.00
2023-05-20T07:57:13.052Z,82560.00
2023-05-20T07:58:13.053Z,84512.00
2023-05-20T07:59:13.084Z,76064.00
2023-05-20T08:00:13.138Z,82048.00
2023-05-20T08:01:13.145Z,83680.00
2023-05-20T08:02:13.190Z,81984.00
2023-05-20T08:03:13.363Z,84672.00
2023-05-20T08:04:13.283Z,73216.00
2023-05-20T08:05:13.245Z,89184.00
2023-05-20T08:06:13.265Z,89984.00
2023-05-20T08:07:13.256Z,73824.00
2023-05-20T08:08:13.309Z,79936.00
2023-05-20T08:09:13.376Z,70816.00
2023-05-20T08:10:13.403Z,78208.00
2023-05-20T08:11:13.440Z,69024.00
2023-05-20T08:12:13.449Z,81728.00
2023-05-20T08:13:13.456Z,90144.00
2023-05-20T08:14:13.519Z,85344.00
2023-05-20T08:15:13.506Z,88512.00
2023-05-20T08:16:13.586Z,75072.00
2023-05-20T08:17:13.704Z,67872.00
2023-05-20T08:18:13.559Z,74208.00
2023-05-20T08:19:13.581Z,80224.00
2023-05-20T08:20:13.608Z,77984.00
2023-05-20T08:21:13.620Z,69440.00
2023-05-20T08:22:13.604Z,68000.00
2023-05-20T08:23:13.623Z,73312.00
2023-05-20T08:24:13.649Z,77920.00
2023-05-20T08:25:13.676Z,77024.00
2023-05-20T08:26:13.737Z,83136.00
2023-05-20T08:27:13.764Z,80640.00
2023-05-20T08:28:13.790Z,81120.00
2023-05-20T08:29:13.865Z,76352.00
2023-05-20T08:30:13.874Z,73920.00
2023-05-20T08:31:13.916Z,74240.00
2023-05-20T08:32:13.882Z,75616.00
2023-05-20T08:33:13.953Z,78624.00
2023-05-20T08:34:13.955Z,80064.00
2023-05-20T08:35:14.005Z,79488.00
2023-05-20T08:36:14.019Z,69376.00
2023-05-20T08:37:14.078Z,66976.00
2023-05-20T08:38:14.160Z,75456.00
2023-05-20T08:39:14.167Z,75552.00
2023-05-20T08:40:14.242Z,72128.00
2023-05-20T08:41:14.255Z,71328.00
2023-05-20T08:42:14.266Z,70528.00
2023-05-20T08:43:14.302Z,73920.00
2023-05-20T08:44:14.341Z,76256.00
2023-05-20T08:45:14.418Z,75008.00
2023-05-20T08:46:16.294Z,75584.00
2023-05-20T08:47:14.456Z,75104.00
2023-05-20T08:48:14.520Z,75008.00
2023-05-20T08:49:14.579Z,75424.00
2023-05-20T08:50:14.647Z,72896.00
2023-05-20T08:51:14.606Z,72416.00
2023-05-20T08:52:14.663Z,67360.00
2023-05-20T08:53:14.668Z,71072.00
2023-05-20T08:54:14.742Z,70656.00
2023-05-20T08:55:14.743Z,67648.00
2023-05-20T08:56:14.750Z,68480.00
2023-05-20T08:57:14.761Z,68896.00
2023-05-20T08:58:14.785Z,69408.00
2023-05-20T08:59:14.826Z,68448.00
2023-05-20T09:00:14.876Z,69440.00
2023-05-20T09:01:14.969Z,63808.00
2023-05-20T09:02:15.028Z,64352.00
2023-05-20T09:03:15.017Z,64896.00
2023-05-20T09:04:15.013Z,66688.00
2023-05-20T09:05:15.138Z,66240.00
2023-05-20T09:06:15.079Z,66944.00
2023-05-20T09:07:15.099Z,65408.00
2023-05-20T09:08:15.150Z,66336.00
2023-05-20T09:09:15.166Z,63744.00
2023-05-20T09:10:15.177Z,65024.00
2023-05-20T09:11:15.189Z,53664.00
2023-05-20T09:12:15.254Z,64416.00
2023-05-20T09:13:15.244Z,63072.00
2023-05-20T09:14:15.284Z,62848.00
2023-05-20T09:15:15.339Z,61664.00
2023-05-20T09:16:15.460Z,62784.00
2023-05-20T09:17:15.409Z,62400.00
2023-05-20T09:18:15.408Z,62880.00
2023-05-20T09:19:15.473Z,63168.00
2023-05-20T09:20:15.451Z,59968.00
2023-05-20T09:21:15.505Z,63520.00
2023-05-20T09:22:15.519Z,60640.00
2023-05-20T09:23:15.570Z,58272.00
2023-05-20T09:24:15.638Z,54144.00
2023-05-20T09:25:15.627Z,53056.00
2023-05-20T09:26:15.687Z,53504.00
2023-05-20T09:27:15.691Z,53824.00
2023-05-20T09:28:15.733Z,53632.00
2023-05-20T09:29:15.811Z,51872.00
2023-05-20T09:30:15.846Z,51904.00
2023-05-20T09:31:15.949Z,54784.00
2023-05-20T09:32:15.859Z,52960.00
2023-05-20T09:33:16.527Z,52000.00
2023-05-20T09:34:15.904Z,52864.00
2023-05-20T09:35:15.991Z,56800.00
2023-05-20T09:36:16.748Z,53696.00
2023-05-20T09:37:16.002Z,52672.00
2023-05-20T09:38:16.011Z,53536.00
2023-05-20T09:39:16.077Z,51904.00
2023-05-20T09:40:16.058Z,52320.00
2023-05-20T09:41:16.148Z,52512.00
2023-05-20T09:42:16.133Z,51936.00
2023-05-20T09:43:16.179Z,54208.00
2023-05-20T09:44:16.190Z,51872.00
2023-05-20T09:45:16.200Z,54848.00
2023-05-20T09:46:16.233Z,19264.00
2023-05-20T09:47:16.262Z,53120.00
2023-05-20T09:48:16.307Z,51840.00
2023-05-20T09:49:16.308Z,52256.00
2023-05-20T09:50:16.297Z,19168.00
2023-05-20T09:51:16.317Z,42912.00
2023-05-20T09:52:16.562Z,48736.00
2023-05-20T09:53:16.360Z,47424.00
2023-05-20T09:54:16.378Z,46304.00
2023-05-20T09:55:16.429Z,49216.00
2023-05-20T09:56:16.473Z,48544.00
2023-05-20T09:57:16.458Z,48288.00
2023-05-20T09:58:16.578Z,48128.00
2023-05-20T09:59:16.551Z,44992.00
2023-05-20T10:00:16.641Z,46048.00
2023-05-20T10:01:16.625Z,44384.00
2023-05-20T10:02:16.673Z,43168.00
2023-05-20T10:03:16.746Z,42368.00
2023-05-20T10:04:17.608Z,41440.00
2023-05-20T10:05:16.688Z,40608.00
2023-05-20T10:06:16.677Z,42080.00
2023-05-20T10:07:17.325Z,41088.00
2023-05-20T10:08:16.791Z,37344.00
2023-05-20T10:09:16.758Z,35168.00
2023-05-20T10:10:16.831Z,36160.00
2023-05-20T10:11:16.818Z,34144.00
2023-05-20T10:12:16.812Z,35616.00
2023-05-20T10:13:16.874Z,34848.00
2023-05-20T10:14:16.972Z,35072.00
2023-05-20T10:15:16.947Z,35136.00
2023-05-20T10:16:17.000Z,35648.00
2023-05-20T10:17:17.058Z,35072.00
2023-05-20T10:18:17.065Z,35328.00
2023-05-20T10:19:17.081Z,35072.00
2023-05-20T10:20:17.112Z,34080.00
2023-05-20T10:21:17.154Z,34496.00
2023-05-20T10:22:17.156Z,34560.00
2023-05-20T10:23:17.140Z,32960.00
2023-05-20T10:24:17.182Z,19840.00
2023-05-20T10:25:17.240Z,19168.00
2023-05-20T10:26:17.243Z,20576.00
2023-05-20T10:27:17.325Z,18272.00
2023-05-20T10:28:17.292Z,14984.00
2023-05-20T10:29:17.367Z,15208.00
2023-05-20T10:30:17.415Z,15804.00
2023-05-20T10:31:17.452Z,29856.00
2023-05-20T10:32:17.569Z,30400.00
2023-05-20T10:33:17.569Z,30752.00
2023-05-20T10:34:17.487Z,27552.00
2023-05-20T10:35:17.503Z,25600.00
2023-05-20T10:36:17.563Z,19136.00
2023-05-20T10:37:17.573Z,19232.00
2023-05-20T10:38:17.582Z,23680.00
2023-05-20T10:39:17.623Z,23040.00
2023-05-20T10:40:17.639Z,18368.00
2023-05-20T10:41:17.690Z,18464.00
2023-05-20T10:42:17.754Z,18784.00
2023-05-20T10:43:17.809Z,18496.00
2023-05-20T10:44:17.896Z,21280.00
2023-05-20T10:45:17.927Z,18080.00
2023-05-20T10:46:30.882Z,24832.00
2023-05-20T10:47:25.337Z,26784.00
2023-05-20T10:48:18.218Z,20384.00
2023-05-20T10:49:18.233Z,18400.00
2023-05-20T10:50:18.149Z,17152.00
2023-05-20T10:51:18.161Z,16152.00
2023-05-20T10:52:18.152Z,17280.00
2023-05-20T10:53:32.390Z,18496.00
2023-05-20T10:54:18.209Z,18944.00
2023-05-20T10:55:18.225Z,17280.00
2023-05-20T10:56:18.295Z,15524.00
2023-05-20T10:57:18.325Z,14912.00
2023-05-20T10:58:18.330Z,18784.00
2023-05-20T10:59:18.363Z,15788.00
2023-05-20T11:00:18.394Z,19968.00
2023-05-20T11:01:18.463Z,15124.00
2023-05-20T11:02:18.448Z,17120.00
2023-05-20T11:03:18.674Z,18720.00
2023-05-20T11:04:18.560Z,16480.00
2023-05-20T11:05:18.550Z,17216.00
2023-05-20T11:06:18.748Z,18464.00
2023-05-20T11:07:18.638Z,18112.00
2023-05-20T11:08:28.618Z,18240.00
2023-05-20T11:09:18.718Z,18016.00
2023-05-20T11:10:18.749Z,18112.00
2023-05-20T11:11:18.809Z,18112.00
2023-05-20T11:12:18.875Z,17504.00
2023-05-20T11:13:18.964Z,15488.00
2023-05-20T11:14:18.931Z,16292.00
2023-05-20T11:15:18.921Z,18528.00
2023-05-20T11:16:18.981Z,20096.00
2023-05-20T11:17:18.924Z,15176.00
2023-05-20T11:18:19.217Z,15004.00
2023-05-20T11:19:19.211Z,14748.00
2023-05-20T11:20:19.131Z,15324.00
2023-05-20T11:21:19.185Z,16896.00
2023-05-20T11:22:19.150Z,18208.00
2023-05-20T11:23:19.203Z,19328.00
2023-05-20T11:24:19.247Z,19232.00
2023-05-20T11:25:19.306Z,19168.00
2023-05-20T11:26:19.372Z,19424.00
2023-05-20T11:27:19.410Z,20864.00
2023-05-20T11:28:19.423Z,24544.00
2023-05-20T11:29:19.412Z,20064.00
2023-05-20T11:30:19.420Z,18464.00
2023-05-20T11:31:19.485Z,18720.00
2023-05-20T11:32:19.623Z,18944.00
2023-05-20T11:33:19.608Z,19648.00
2023-05-20T11:34:19.470Z,19296.00
2023-05-20T11:35:19.533Z,19136.00
2023-05-20T11:36:27.535Z,18528.00
2023-05-20T11:37:19.561Z,17472.00
2023-05-20T11:38:19.559Z,17664.00
2023-05-20T11:39:19.586Z,17728.00
2023-05-20T11:40:19.584Z,17280.00
2023-05-20T11:41:19.643Z,19200.00
2023-05-20T11:42:19.713Z,20320.00
2023-05-20T11:43:19.802Z,19616.00
2023-05-20T11:44:19.780Z,19616.00
2023-05-20T11:45:19.825Z,17212.00
2023-05-20T11:46:19.957Z,19584.00
2023-05-20T11:47:22.540Z,19776.00
2023-05-20T11:48:20.022Z,19520.00
2023-05-20T11:49:20.069Z,20352.00
2023-05-20T11:50:20.074Z,20640.00
2023-05-20T11:51:20.065Z,20640.00
2023-05-20T11:52:20.056Z,21920.00
2023-05-20T11:53:20.099Z,24416.00
2023-05-20T11:54:20.178Z,22400.00
2023-05-20T11:55:20.180Z,22880.00
2023-05-20T11:56:20.256Z,18944.00
2023-05-20T11:57:20.255Z,20928.00
2023-05-20T11:58:20.243Z,19040.00
2023-05-20T11:59:20.265Z,17504.00
2023-05-20T12:00:20.297Z,18048.00
2023-05-20T12:01:22.952Z,18880.00
2023-05-20T12:02:20.380Z,21216.00
2023-05-20T12:03:20.534Z,19872.00
2023-05-20T12:04:20.489Z,19936.00
2023-05-20T12:05:20.428Z,21600.00
2023-05-20T12:06:20.438Z,22272.00
2023-05-20T12:07:20.417Z,21792.00
2023-05-20T12:08:20.431Z,19968.00
2023-05-20T12:09:20.443Z,19232.00
2023-05-20T12:10:20.461Z,18464.00
2023-05-20T12:11:20.537Z,18816.00